sensor_id;sensor_type;location;lat;lon;timestamp;pressure;altitude;pressure_sealevel;temperature;humidity
48790;BME280;41718;51.980;5.734;2023-03-13T00:00:30;100125.69;;;7.97;100.00
48790;BME280;41718;51.980;5.734;2023-03-13T00:05:34;100112.88;;;8.05;100.00
48790;BME280;41718;51.980;5.734;2023-03-13T00:10:37;100116.25;;;7.99;100.00
48790;BME280;41718;51.980;5.734;2023-03-13T00:15:40;100103.22;;;7.88;100.00
48790;BME280;41718;51.980;5.734;2023-03-13T00:20:42;100088.66;;;7.89;100.00
48790;BME280;41718;51.980;5.734;2023-03-13T00:25:43;100087.81;;;7.90;100.00
48790;BME280;41718;51.980;5.734;2023-03-13T00:30:45;100073.25;;;7.93;100.00
48790;BME280;41718;51.980;5.734;2023-03-13T00:35:46;100065.53;;;7.93;100.00
48790;BME280;41718;51.980;5.734;2023-03-13T00:40:48;100068.88;;;7.88;100.00
48790;BME280;41718;51.980;5.734;2023-03-13T00:45:49;100049.97;;;7.84;100.00
48790;BME280;41718;51.980;5.734;2023-03-13T00:50:51;100039.63;;;7.80;100.00
48790;BME280;41718;51.980;5.734;2023-03-13T00:55:57;100026.72;;;7.78;100.00
48790;BME280;41718;51.980;5.734;2023-03-13T01:01:33;100009.50;;;7.76;100.00
48790;BME280;41718;51.980;5.734;2023-03-13T01:06:37;99995.78;;;7.77;100.00
48790;BME280;41718;51.980;5.734;2023-03-13T01:11:40;99984.69;;;7.78;100.00
48790;BME280;41718;51.980;5.734;2023-03-13T01:16:41;99968.38;;;7.79;100.00
48790;BME280;41718;51.980;5.734;2023-03-13T01:21:44;99946.94;;;7.80;100.00
48790;BME280;41718;51.980;5.734;2023-03-13T01:26:46;99935.84;;;7.88;100.00
48790;BME280;41718;51.980;5.734;2023-03-13T01:31:47;99917.03;;;7.94;100.00
48790;BME280;41718;51.980;5.734;2023-03-13T01:36:49;99893.13;;;8.07;100.00
48790;BME280;41718;51.980;5.734;2023-03-13T01:41:52;99893.09;;;8.04;100.00
48790;BME280;41718;51.980;5.734;2023-03-13T01:46:54;99874.31;;;8.13;100.00
48790;BME280;41718;51.980;5.734;2023-03-13T01:52:03;99858.00;;;8.15;100.00
48790;BME280;41718;51.980;5.734;2023-03-13T01:57:32;99833.13;;;8.22;100.00
48790;BME280;41718;51.980;5.734;2023-03-13T02:02:35;99832.31;;;8.26;100.00
48790;BME280;41718;51.980;5.734;2023-03-13T02:07:47;99814.31;;;8.32;100.00
48790;BME280;41718;51.980;5.734;2023-03-13T02:12:51;99804.13;;;8.40;100.00
48790;BME280;41718;51.980;5.734;2023-03-13T02:17:52;99784.38;;;8.42;100.00
48790;BME280;41718;51.980;5.734;2023-03-13T02:23:02;99769.88;;;8.58;100.00
48790;BME280;41718;51.980;5.734;2023-03-13T02:28:20;99755.28;;;8.63;100.00
48790;BME280;41718;51.980;5.734;2023-03-13T02:33:26;99722.66;;;8.69;100.00
48790;BME280;41718;51.980;5.734;2023-03-13T02:38:31;99707.19;;;8.77;100.00
48790;BME280;41718;51.980;5.734;2023-03-13T02:43:37;99696.88;;;8.75;100.00
48790;BME280;41718;51.980;5.734;2023-03-13T02:48:44;99687.47;;;8.93;100.00
48790;BME280;41718;51.980;5.734;2023-03-13T02:53:48;99690.06;;;8.91;100.00
48790;BME280;41718;51.980;5.734;2023-03-13T02:58:50;99672.03;;;9.08;100.00
48790;BME280;41718;51.980;5.734;2023-03-13T03:03:52;99672.91;;;9.18;100.00
48790;BME280;41718;51.980;5.734;2023-03-13T03:08:53;99671.19;;;9.17;100.00
48790;BME280;41718;51.980;5.734;2023-03-13T03:13:55;99670.34;;;9.41;100.00
48790;BME280;41718;51.980;5.734;2023-03-13T03:18:56;99663.47;;;9.43;100.00
48790;BME280;41718;51.980;5.734;2023-03-13T03:23:58;99664.31;;;9.46;100.00
48790;BME280;41718;51.980;5.734;2023-03-13T03:29:00;99643.66;;;9.57;100.00
48790;BME280;41718;51.980;5.734;2023-03-13T03:34:01;99640.22;;;9.61;100.00
48790;BME280;41718;51.980;5.734;2023-03-13T03:39:03;99626.44;;;9.76;100.00
48790;BME280;41718;51.980;5.734;2023-03-13T03:44:05;99622.13;;;9.72;100.00
48790;BME280;41718;51.980;5.734;2023-03-13T03:49:07;99620.41;;;9.69;100.00
48790;BME280;41718;51.980;5.734;2023-03-13T03:54:08;99609.19;;;9.75;100.00
48790;BME280;41718;51.980;5.734;2023-03-13T03:59:10;99615.22;;;9.85;100.00
48790;BME280;41718;51.980;5.734;2023-03-13T04:04:12;99601.44;;;9.79;100.00
48790;BME280;41718;51.980;5.734;2023-03-13T04:09:13;99590.25;;;9.85;100.00
48790;BME280;41718;51.980;5.734;2023-03-13T04:14:14;99582.50;;;9.90;100.00
48790;BME280;41718;51.980;5.734;2023-03-13T04:19:16;99571.31;;;9.89;100.00
48790;BME280;41718;51.980;5.734;2023-03-13T04:24:17;99559.19;;;10.03;100.00
48790;BME280;41718;51.980;5.734;2023-03-13T04:29:19;99559.16;;;10.09;100.00
48790;BME280;41718;51.980;5.734;2023-03-13T04:34:21;99559.16;;;10.13;100.00
48790;BME280;41718;51.980;5.734;2023-03-13T04:39:23;99537.59;;;10.18;100.00
48790;BME280;41718;51.980;5.734;2023-03-13T04:44:25;99527.25;;;10.20;100.00
48790;BME280;41718;51.980;5.734;2023-03-13T04:49:27;99518.63;;;10.25;100.00
48790;BME280;41718;51.980;5.734;2023-03-13T04:54:28;99501.41;;;10.20;100.00
48790;BME280;41718;51.980;5.734;2023-03-13T04:59:30;99506.63;;;10.12;100.00
48790;BME280;41718;51.980;5.734;2023-03-13T05:04:31;99503.09;;;10.21;100.00
48790;BME280;41718;51.980;5.734;2023-03-13T05:09:33;99479.84;;;10.25;100.00
48790;BME280;41718;51.980;5.734;2023-03-13T05:14:34;99478.91;;;10.40;100.00
48790;BME280;41718;51.980;5.734;2023-03-13T05:19:38;99476.31;;;10.40;100.00
48790;BME280;41718;51.980;5.734;2023-03-13T05:24:39;99474.53;;;10.48;100.00
48790;BME280;41718;51.980;5.734;2023-03-13T05:29:42;99485.84;;;10.38;100.00
48790;BME280;41718;51.980;5.734;2023-03-13T05:34:43;99480.59;;;10.46;100.00
48790;BME280;41718;51.980;5.734;2023-03-13T05:39:45;99496.91;;;10.55;100.00
48790;BME280;41718;51.980;5.734;2023-03-13T05:44:46;99491.63;;;10.66;100.00
48790;BME280;41718;51.980;5.734;2023-03-13T05:49:48;99494.25;;;10.63;100.00
48790;BME280;41718;51.980;5.734;2023-03-13T05:54:49;99494.22;;;10.69;100.00
48790;BME280;41718;51.980;5.734;2023-03-13T05:59:51;99510.66;;;10.60;100.00
48790;BME280;41718;51.980;5.734;2023-03-13T06:04:52;99517.47;;;10.72;100.00
48790;BME280;41718;51.980;5.734;2023-03-13T06:09:54;99510.59;;;10.70;100.00
48790;BME280;41718;51.980;5.734;2023-03-13T06:14:55;99503.75;;;10.59;100.00
48790;BME280;41718;51.980;5.734;2023-03-13T06:19:57;99489.91;;;10.70;100.00
48790;BME280;41718;51.980;5.734;2023-03-13T06:24:58;99485.47;;;10.82;100.00
48790;BME280;41718;51.980;5.734;2023-03-13T06:30:00;99480.25;;;10.90;100.00
48790;BME280;41718;51.980;5.734;2023-03-13T06:35:02;99482.78;;;10.96;100.00
48790;BME280;41718;51.980;5.734;2023-03-13T06:40:05;99492.22;;;11.02;100.00
48790;BME280;41718;51.980;5.734;2023-03-13T06:45:08;99479.38;;;10.91;100.00
48790;BME280;41718;51.980;5.734;2023-03-13T06:50:10;99482.78;;;10.96;100.00
48790;BME280;41718;51.980;5.734;2023-03-13T06:55:11;99482.72;;;11.02;100.00
48790;BME280;41718;51.980;5.734;2023-03-13T07:00:16;99487.81;;;11.13;100.00
48790;BME280;41718;51.980;5.734;2023-03-13T07:05:18;99480.84;;;11.20;100.00
48790;BME280;41718;51.980;5.734;2023-03-13T07:10:20;99483.28;;;11.32;100.00
48790;BME280;41718;51.980;5.734;2023-03-13T07:15:22;99481.47;;;11.41;100.00
48790;BME280;41718;51.980;5.734;2023-03-13T07:20:24;99485.88;;;11.32;100.00
48790;BME280;41718;51.980;5.734;2023-03-13T07:25:25;99496.19;;;11.36;100.00
48790;BME280;41718;51.980;5.734;2023-03-13T07:30:27;99505.53;;;11.51;100.00
48790;BME280;41718;51.980;5.734;2023-03-13T07:35:29;99508.97;;;11.53;100.00
48790;BME280;41718;51.980;5.734;2023-03-13T07:40:30;99514.16;;;11.53;100.00
48790;BME280;41718;51.980;5.734;2023-03-13T07:45:32;99527.22;;;11.43;100.00
48790;BME280;41718;51.980;5.734;2023-03-13T07:50:33;99528.09;;;11.38;100.00
48790;BME280;41718;51.980;5.734;2023-03-13T07:55:35;99535.19;;;11.21;100.00
48790;BME280;41718;51.980;5.734;2023-03-13T08:00:36;99541.25;;;11.19;100.00
48790;BME280;41718;51.980;5.734;2023-03-13T08:05:40;99559.44;;;11.12;100.00
48790;BME280;41718;51.980;5.734;2023-03-13T08:10:42;99548.13;;;11.21;100.00
48790;BME280;41718;51.980;5.734;2023-03-13T08:15:45;99549.88;;;11.19;100.00
48790;BME280;41718;51.980;5.734;2023-03-13T08:20:46;99555.00;;;11.24;100.00
48790;BME280;41718;51.980;5.734;2023-03-13T08:25:48;99534.94;;;11.46;100.00
48790;BME280;41718;51.980;5.734;2023-03-13T08:30:49;99539.19;;;11.54;100.00
48790;BME280;41718;51.980;5.734;2023-03-13T08:35:51;99533.22;;;11.48;100.00
48790;BME280;41718;51.980;5.734;2023-03-13T08:40:56;99541.69;;;11.63;100.00
48790;BME280;41718;51.980;5.734;2023-03-13T08:45:57;99555.38;;;11.73;100.00
48790;BME280;41718;51.980;5.734;2023-03-13T08:51:08;99542.50;;;11.68;100.00
48790;BME280;41718;51.980;5.734;2023-03-13T08:56:12;99536.34;;;11.76;100.00
48790;BME280;41718;51.980;5.734;2023-03-13T09:01:14;99505.88;;;11.99;100.00
48790;BME280;41718;51.980;5.734;2023-03-13T09:06:16;99525.63;;;12.09;100.00
48790;BME280;41718;51.980;5.734;2023-03-13T09:11:20;99509.88;;;12.23;100.00
48790;BME280;41718;51.980;5.734;2023-03-13T09:16:23;99499.31;;;12.35;100.00
48790;BME280;41718;51.980;5.734;2023-03-13T09:21:28;99482.94;;;12.33;100.00
48790;BME280;41718;51.980;5.734;2023-03-13T09:26:30;99450.91;;;12.36;100.00
48790;BME280;41718;51.980;5.734;2023-03-13T09:31:32;99478.34;;;12.51;100.00
48790;BME280;41718;51.980;5.734;2023-03-13T09:36:35;99442.75;;;12.60;100.00
48790;BME280;41718;51.980;5.734;2023-03-13T09:42:01;99461.34;;;12.85;100.00
48790;BME280;41718;51.980;5.734;2023-03-13T09:47:11;99439.91;;;12.74;100.00
48790;BME280;41718;51.980;5.734;2023-03-13T09:52:20;99432.88;;;12.82;100.00
48790;BME280;41718;51.980;5.734;2023-03-13T09:57:29;99437.13;;;12.86;100.00
48790;BME280;41718;51.980;5.734;2023-03-13T10:02:34;99406.75;;;12.91;100.00
48790;BME280;41718;51.980;5.734;2023-03-13T10:07:36;99397.22;;;12.92;100.00
48790;BME280;41718;51.980;5.734;2023-03-13T10:12:43;99395.34;;;12.98;100.00
48790;BME280;41718;51.980;5.734;2023-03-13T10:17:45;99401.09;;;13.16;100.00
48790;BME280;41718;51.980;5.734;2023-03-13T10:22:49;99401.00;;;13.20;100.00
48790;BME280;41718;51.980;5.734;2023-03-13T10:27:52;99392.91;;;13.39;100.00
48790;BME280;41718;51.980;5.734;2023-03-13T10:38:13;99384.84;;;13.49;100.00
48790;BME280;41718;51.980;5.734;2023-03-13T10:43:20;99374.25;;;13.60;100.00
48790;BME280;41718;51.980;5.734;2023-03-13T10:48:25;99355.63;;;13.80;100.00
48790;BME280;41718;51.980;5.734;2023-03-13T10:53:35;99354.78;;;13.78;100.00
48790;BME280;41718;51.980;5.734;2023-03-13T10:58:46;99353.41;;;14.02;100.00
48790;BME280;41718;51.980;5.734;2023-03-13T11:03:51;99342.81;;;14.47;100.00
48790;BME280;41718;51.980;5.734;2023-03-13T11:09:08;99332.91;;;14.92;100.00
48790;BME280;41718;51.980;5.734;2023-03-13T11:14:17;99330.63;;;14.80;100.00
48790;BME280;41718;51.980;5.734;2023-03-13T11:19:28;99317.91;;;15.00;100.00
48790;BME280;41718;51.980;5.734;2023-03-13T11:24:49;99311.06;;;14.98;100.00
48790;BME280;41718;51.980;5.734;2023-03-13T11:30:14;99276.59;;;15.47;100.00
48790;BME280;41718;51.980;5.734;2023-03-13T11:36:09;99283.66;;;15.73;100.00
48790;BME280;41718;51.980;5.734;2023-03-13T11:46:48;99276.34;;;15.84;100.00
48790;BME280;41718;51.980;5.734;2023-03-13T11:52:07;99260.75;;;15.83;100.00
48790;BME280;41718;51.980;5.734;2023-03-13T11:57:22;99252.25;;;16.03;100.00
48790;BME280;41718;51.980;5.734;2023-03-13T12:02:40;99271.13;;;15.84;100.00
48790;BME280;41718;51.980;5.734;2023-03-13T12:08:00;99256.34;;;15.27;100.00
48790;BME280;41718;51.980;5.734;2023-03-13T12:13:26;99250.38;;;15.24;100.00
48790;BME280;41718;51.980;5.734;2023-03-13T12:18:32;99257.28;;;15.25;100.00
48790;BME280;41718;51.980;5.734;2023-03-13T12:29:05;99216.41;;;15.83;100.00
48790;BME280;41718;51.980;5.734;2023-03-13T12:34:19;99207.97;;;16.01;100.00
48790;BME280;41718;51.980;5.734;2023-03-13T12:44:26;99196.59;;;15.77;100.00
48790;BME280;41718;51.980;5.734;2023-03-13T12:49:51;99174.56;;;16.11;100.00
48790;BME280;41718;51.980;5.734;2023-03-13T13:00:24;99174.38;;;16.17;100.00
48790;BME280;41718;51.980;5.734;2023-03-13T13:05:28;99160.09;;;15.77;100.00
48790;BME280;41718;51.980;5.734;2023-03-13T13:10:29;99146.47;;;15.94;100.00
48790;BME280;41718;51.980;5.734;2023-03-13T13:15:31;99122.28;;;16.14;100.00
48790;BME280;41718;51.980;5.734;2023-03-13T13:25:36;99136.53;;;16.05;100.00
48790;BME280;41718;51.980;5.734;2023-03-13T13:30:38;99123.84;;;15.95;100.00
48790;BME280;41718;51.980;5.734;2023-03-13T13:35:39;99130.44;;;16.05;100.00
48790;BME280;41718;51.980;5.734;2023-03-13T13:41:01;99115.19;;;15.94;100.00
48790;BME280;41718;51.980;5.734;2023-03-13T14:01:30;99086.00;;;16.08;100.00
48790;BME280;41718;51.980;5.734;2023-03-13T14:06:34;99099.88;;;16.08;100.00
48790;BME280;41718;51.980;5.734;2023-03-13T14:11:37;99084.97;;;15.87;100.00
48790;BME280;41718;51.980;5.734;2023-03-13T14:16:43;99087.66;;;15.85;100.00
48790;BME280;41718;51.980;5.734;2023-03-13T14:21:46;99073.34;;;15.72;100.00
48790;BME280;41718;51.980;5.734;2023-03-13T14:26:48;99066.03;;;15.82;100.00
48790;BME280;41718;51.980;5.734;2023-03-13T14:31:57;99074.22;;;15.71;100.00
48790;BME280;41718;51.980;5.734;2023-03-13T14:37:00;99075.19;;;15.44;100.00
48790;BME280;41718;51.980;5.734;2023-03-13T14:42:18;99083.41;;;15.56;100.00
48790;BME280;41718;51.980;5.734;2023-03-13T14:47:27;99065.53;;;15.46;100.00
48790;BME280;41718;51.980;5.734;2023-03-13T14:52:32;99078.13;;;15.33;100.00
48790;BME280;41718;51.980;5.734;2023-03-13T14:57:34;99069.78;;;15.48;100.00
48790;BME280;41718;51.980;5.734;2023-03-13T15:02:36;99058.94;;;15.35;100.00
48790;BME280;41718;51.980;5.734;2023-03-13T15:07:41;99060.81;;;15.32;100.00
48790;BME280;41718;51.980;5.734;2023-03-13T15:12:47;99056.47;;;15.31;100.00
48790;BME280;41718;51.980;5.734;2023-03-13T15:17:49;99057.38;;;15.30;100.00
48790;BME280;41718;51.980;5.734;2023-03-13T15:22:51;99053.88;;;15.31;100.00
48790;BME280;41718;51.980;5.734;2023-03-13T15:27:52;99047.00;;;15.28;100.00
48790;BME280;41718;51.980;5.734;2023-03-13T15:32:54;99058.44;;;15.24;100.00
48790;BME280;41718;51.980;5.734;2023-03-13T15:37:57;99041.44;;;15.13;100.00
48790;BME280;41718;51.980;5.734;2023-03-13T15:42:59;99019.88;;;15.09;100.00
48790;BME280;41718;51.980;5.734;2023-03-13T15:48:00;99013.97;;;15.04;100.00
48790;BME280;41718;51.980;5.734;2023-03-13T15:53:10;98998.69;;;14.93;100.00
48790;BME280;41718;51.980;5.734;2023-03-13T15:58:17;98987.38;;;14.94;100.00
48790;BME280;41718;51.980;5.734;2023-03-13T16:03:24;98973.59;;;14.91;100.00
48790;BME280;41718;51.980;5.734;2023-03-13T16:14:11;98967.25;;;14.45;100.00
48790;BME280;41718;51.980;5.734;2023-03-13T16:19:16;98954.47;;;14.37;100.00
48790;BME280;41718;51.980;5.734;2023-03-13T16:24:18;98954.22;;;14.17;100.00
48790;BME280;41718;51.980;5.734;2023-03-13T16:29:21;98953.16;;;13.96;100.00
48790;BME280;41718;51.980;5.734;2023-03-13T16:34:26;98947.47;;;13.82;100.00
48790;BME280;41718;51.980;5.734;2023-03-13T16:39:30;98950.22;;;13.77;100.00
48790;BME280;41718;51.980;5.734;2023-03-13T16:44:32;98954.97;;;13.63;100.00
48790;BME280;41718;51.980;5.734;2023-03-13T16:49:38;98937.19;;;13.47;100.00
48790;BME280;41718;51.980;5.734;2023-03-13T16:54:48;98931.34;;;13.41;100.00
48790;BME280;41718;51.980;5.734;2023-03-13T16:59:50;98936.88;;;13.29;100.00
48790;BME280;41718;51.980;5.734;2023-03-13T17:04:52;98939.06;;;13.10;100.00
48790;BME280;41718;51.980;5.734;2023-03-13T17:09:54;98941.78;;;13.05;100.00
48790;BME280;41718;51.980;5.734;2023-03-13T17:14:55;98956.59;;;13.02;100.00
48790;BME280;41718;51.980;5.734;2023-03-13T17:20:00;98974.13;;;12.92;100.00
48790;BME280;41718;51.980;5.734;2023-03-13T17:25:01;98985.03;;;12.70;100.00
48790;BME280;41718;51.980;5.734;2023-03-13T17:30:21;98978.22;;;12.66;100.00
48790;BME280;41718;51.980;5.734;2023-03-13T17:35:23;98967.34;;;12.51;100.00
48790;BME280;41718;51.980;5.734;2023-03-13T17:40:28;98969.19;;;12.45;100.00
48790;BME280;41718;51.980;5.734;2023-03-13T17:45:32;98982.25;;;12.42;100.00
48790;BME280;41718;51.980;5.734;2023-03-13T17:50:39;98960.75;;;12.37;100.00
48790;BME280;41718;51.980;5.734;2023-03-13T17:55:40;98958.47;;;12.24;100.00
48790;BME280;41718;51.980;5.734;2023-03-13T18:00:42;98961.13;;;12.20;100.00
48790;BME280;41718;51.980;5.734;2023-03-13T18:05:47;98965.44;;;12.22;100.00
48790;BME280;41718;51.980;5.734;2023-03-13T18:10:48;98963.88;;;12.13;100.00
48790;BME280;41718;51.980;5.734;2023-03-13T18:15:50;98968.41;;;12.05;100.00
48790;BME280;41718;51.980;5.734;2023-03-13T18:20:53;98968.47;;;12.00;100.00
48790;BME280;41718;51.980;5.734;2023-03-13T18:25:57;98957.31;;;11.97;100.00
48790;BME280;41718;51.980;5.734;2023-03-13T18:30:58;98968.13;;;11.75;100.00
48790;BME280;41718;51.980;5.734;2023-03-13T18:36:00;98959.72;;;11.64;100.00
48790;BME280;41718;51.980;5.734;2023-03-13T18:41:01;98956.50;;;11.51;100.00
48790;BME280;41718;51.980;5.734;2023-03-13T18:46:03;98939.34;;;11.47;100.00
48790;BME280;41718;51.980;5.734;2023-03-13T18:51:11;98927.50;;;11.34;100.00
48790;BME280;41718;51.980;5.734;2023-03-13T18:56:18;98931.28;;;11.16;100.00
48790;BME280;41718;51.980;5.734;2023-03-13T19:01:23;98918.53;;;11.05;100.00
48790;BME280;41718;51.980;5.734;2023-03-13T19:06:33;98939.50;;;10.92;100.00
48790;BME280;41718;51.980;5.734;2023-03-13T19:11:38;98925.66;;;10.94;100.00
48790;BME280;41718;51.980;5.734;2023-03-13T19:21:51;98942.34;;;10.76;100.00
48790;BME280;41718;51.980;5.734;2023-03-13T19:26:59;98939.78;;;10.75;100.00
48790;BME280;41718;51.980;5.734;2023-03-13T19:32:02;98935.53;;;10.72;100.00
48790;BME280;41718;51.980;5.734;2023-03-13T19:37:12;98935.66;;;10.65;100.00
48790;BME280;41718;51.980;5.734;2023-03-13T19:42:17;98922.81;;;10.58;100.00
48790;BME280;41718;51.980;5.734;2023-03-13T19:47:27;98917.13;;;10.37;100.00
48790;BME280;41718;51.980;5.734;2023-03-13T19:52:32;98916.50;;;10.19;100.00
48790;BME280;41718;51.980;5.734;2023-03-13T19:57:37;98919.28;;;10.07;100.00
48790;BME280;41718;51.980;5.734;2023-03-13T20:02:40;98917.03;;;9.81;100.00
48790;BME280;41718;51.980;5.734;2023-03-13T20:07:45;98924.31;;;9.53;100.00
48790;BME280;41718;51.980;5.734;2023-03-13T20:12:55;98927.00;;;9.44;100.00
48790;BME280;41718;51.980;5.734;2023-03-13T20:18:09;98922.50;;;9.58;100.00
48790;BME280;41718;51.980;5.734;2023-03-13T20:23:14;98921.03;;;10.03;100.00
48790;BME280;41718;51.980;5.734;2023-03-13T20:28:16;98922.97;;;10.49;100.00
48790;BME280;41718;51.980;5.734;2023-03-13T20:33:18;98913.22;;;10.65;100.00
48790;BME280;41718;51.980;5.734;2023-03-13T20:38:20;98892.84;;;10.47;100.00
48790;BME280;41718;51.980;5.734;2023-03-13T20:43:24;98893.47;;;10.63;100.00
48790;BME280;41718;51.980;5.734;2023-03-13T20:48:27;98888.22;;;10.66;100.00
48790;BME280;41718;51.980;5.734;2023-03-13T20:53:28;98891.28;;;10.38;100.00
48790;BME280;41718;51.980;5.734;2023-03-13T20:58:30;98891.25;;;10.40;100.00
48790;BME280;41718;51.980;5.734;2023-03-13T21:03:32;98897.88;;;10.54;100.00
48790;BME280;41718;51.980;5.734;2023-03-13T21:08:38;98897.53;;;10.23;100.00
48790;BME280;41718;51.980;5.734;2023-03-13T21:13:42;98896.63;;;10.26;100.00
48790;BME280;41718;51.980;5.734;2023-03-13T21:18:46;98901.44;;;10.50;100.00
48790;BME280;41718;51.980;5.734;2023-03-13T21:23:48;98909.38;;;10.38;100.00
48790;BME280;41718;51.980;5.734;2023-03-13T21:28:58;98897.34;;;10.35;100.00
48790;BME280;41718;51.980;5.734;2023-03-13T21:34:00;98877.34;;;10.47;100.00
48790;BME280;41718;51.980;5.734;2023-03-13T21:39:02;98862.00;;;10.36;100.00
48790;BME280;41718;51.980;5.734;2023-03-13T21:44:17;98892.91;;;10.44;100.00
48790;BME280;41718;51.980;5.734;2023-03-13T21:49:29;98854.78;;;10.55;100.00
48790;BME280;41718;51.980;5.734;2023-03-13T21:54:36;98850.00;;;10.33;100.00
48790;BME280;41718;51.980;5.734;2023-03-13T21:59:41;98846.63;;;10.28;100.00
48790;BME280;41718;51.980;5.734;2023-03-13T22:04:46;98838.09;;;10.23;100.00
48790;BME280;41718;51.980;5.734;2023-03-13T22:09:54;98832.81;;;10.31;100.00
48790;BME280;41718;51.980;5.734;2023-03-13T22:15:16;98828.72;;;10.15;100.00
48790;BME280;41718;51.980;5.734;2023-03-13T22:20:21;98824.41;;;10.15;100.00
48790;BME280;41718;51.980;5.734;2023-03-13T22:25:27;98800.47;;;10.05;100.00
48790;BME280;41718;51.980;5.734;2023-03-13T22:30:31;98811.53;;;10.14;100.00
48790;BME280;41718;51.980;5.734;2023-03-13T22:35:35;98796.91;;;10.13;100.00
48790;BME280;41718;51.980;5.734;2023-03-13T22:40:47;98791.94;;;10.00;100.00
48790;BME280;41718;51.980;5.734;2023-03-13T22:45:48;98787.63;;;10.01;100.00
48790;BME280;41718;51.980;5.734;2023-03-13T22:51:09;98779.63;;;10.15;100.00
48790;BME280;41718;51.980;5.734;2023-03-13T22:56:14;98782.09;;;10.22;100.00
48790;BME280;41718;51.980;5.734;2023-03-13T23:01:17;98792.28;;;10.33;100.00
48790;BME280;41718;51.980;5.734;2023-03-13T23:06:22;98783.50;;;10.42;100.00
48790;BME280;41718;51.980;5.734;2023-03-13T23:11:24;98791.00;;;10.57;100.00
48790;BME280;41718;51.980;5.734;2023-03-13T23:16:34;98803.84;;;10.61;100.00
48790;BME280;41718;51.980;5.734;2023-03-13T23:21:41;98785.53;;;10.71;100.00
48790;BME280;41718;51.980;5.734;2023-03-13T23:26:43;98777.66;;;10.77;100.00
48790;BME280;41718;51.980;5.734;2023-03-13T23:31:45;98773.50;;;10.70;100.00
48790;BME280;41718;51.980;5.734;2023-03-13T23:36:48;98766.44;;;10.79;100.00
48790;BME280;41718;51.980;5.734;2023-03-13T23:41:52;98753.59;;;10.75;100.00
48790;BME280;41718;51.980;5.734;2023-03-13T23:46:56;98763.03;;;10.76;100.00
48790;BME280;41718;51.980;5.734;2023-03-13T23:51:58;98739.66;;;10.80;100.00
48790;BME280;41718;51.980;5.734;2023-03-13T23:57:00;98732.69;;;10.85;100.00
